Time;durP1;ratioP1;P1;durP2;ratioP2;P2;SDS_P1;SDS_P2;PMS_P1;PMS_P2;Temp;Humidity;BMP_temperature;BMP_pressure;BME280_temperature;BME280_humidity;BME280_pressure;Samples;Min_cycle;Max_cycle;Signal;HPM_P1;HPM_P2
2021/11/09 00:00:23;;;;;;;;;;;17.80;70.70;;;;;;5074408;28;19925;-45
2021/11/09 00:02:51;;;;;;;;;;;17.80;70.70;;;;;;5079074;28;20378;-45
2021/11/09 00:05:19;;;;;;;;;;;17.90;70.80;;;;;;5094891;28;19950;-45
2021/11/09 00:08:02;;;;;;;;;;;17.80;70.70;;;;;;5081278;28;19924;-44
2021/11/09 00:10:29;;;;;;;;;;;17.90;70.80;;;;;;5074258;28;19925;-44
2021/11/09 00:13:00;;;;;;;;;;;17.90;70.90;;;;;;5056767;28;19925;-46
2021/11/09 00:15:29;;;;;;;;;;;17.90;70.90;;;;;;5074511;28;19930;-49
2021/11/09 00:17:57;;;;;;;;;;;17.90;70.90;;;;;;5078219;28;20007;-51
2021/11/09 00:20:26;;;;;;;;;;;17.80;70.80;;;;;;5094621;28;19924;-51
2021/11/09 00:22:53;;;;;;;;;;;17.80;70.80;;;;;;5081482;28;20019;-52
2021/11/09 00:25:21;;;;;;;;;;;17.80;70.80;;;;;;5074308;28;20279;-52
2021/11/09 00:27:49;;;;;;;;;;;17.80;70.80;;;;;;5073967;28;19929;-52
2021/11/09 00:30:18;;;;;;;;;;;17.80;70.80;;;;;;5073937;28;19931;-53
2021/11/09 00:32:45;;;;;;;;;;;17.80;70.80;;;;;;5075400;28;20367;-52
2021/11/09 00:35:17;;;;;;;;;;;17.90;70.90;;;;;;5094081;28;20015;-47
2021/11/09 00:37:45;;;;;;;;;;;17.80;70.80;;;;;;5084309;28;20312;-44
2021/11/09 00:40:13;;;;;;;;;;;17.80;70.80;;;;;;5073822;28;20410;-49
2021/11/09 00:42:40;;;;;;;;;;;17.80;70.80;;;;;;5073708;28;19924;-44
2021/11/09 00:45:08;;;;;;;;;;;17.80;70.80;;;;;;5056298;28;19979;-45
2021/11/09 00:47:40;;;;;;;;;;;17.80;70.90;;;;;;5073322;28;19924;-45
2021/11/09 00:50:08;;;;;;;;;;;17.80;70.80;;;;;;5093373;28;19924;-45
2021/11/09 00:52:35;;;;;;;;;;;17.80;70.80;;;;;;5086753;28;19924;-44
2021/11/09 00:55:03;;;;;;;;;;;17.80;70.90;;;;;;5073857;28;19925;-45
2021/11/09 00:57:30;;;;;;;;;;;17.80;70.80;;;;;;5073883;28;20378;-44
2021/11/09 00:59:57;;;;;;;;;;;17.80;70.90;;;;;;5073821;28;19931;-46
2021/11/09 01:02:24;;;;;;;;;;;17.80;70.90;;;;;;5073847;28;20398;-45
2021/11/09 01:04:51;;;;;;;;;;;17.80;70.80;;;;;;5090057;28;20030;-45
2021/11/09 01:07:18;;;;;;;;;;;17.80;70.90;;;;;;5090188;28;19933;-49
2021/11/09 01:09:45;;;;;;;;;;;17.80;70.90;;;;;;5073833;28;20272;-49
2021/11/09 01:12:12;;;;;;;;;;;17.90;71.00;;;;;;5074044;28;19928;-51
2021/11/09 01:14:40;;;;;;;;;;;17.80;70.90;;;;;;5073623;28;19932;-50
2021/11/09 01:17:07;;;;;;;;;;;17.90;70.90;;;;;;5073361;28;20015;-44
2021/11/09 01:19:35;;;;;;;;;;;17.80;70.80;;;;;;5085834;28;19953;-45
2021/11/09 01:22:03;;;;;;;;;;;17.90;70.90;;;;;;5093614;28;19924;-44
2021/11/09 01:24:30;;;;;;;;;;;17.90;70.90;;;;;;5073365;28;20011;-45
2021/11/09 01:26:57;;;;;;;;;;;17.90;71.00;;;;;;5073335;28;19924;-47
2021/11/09 01:29:24;;;;;;;;;;;17.80;70.80;;;;;;5073652;28;19925;-50
2021/11/09 01:31:53;;;;;;;;;;;17.90;71.00;;;;;;5073604;28;20291;-45
2021/11/09 01:34:21;;;;;;;;;;;17.80;70.80;;;;;;5082623;28;19931;-49
2021/11/09 01:36:48;;;;;;;;;;;17.90;71.00;;;;;;5093700;28;19931;-46
2021/11/09 01:39:15;;;;;;;;;;;17.80;71.50;;;;;;5076924;28;20326;-49
2021/11/09 01:41:43;;;;;;;;;;;17.90;71.00;;;;;;5073186;28;20436;-45
2021/11/09 01:44:10;;;;;;;;;;;17.90;70.90;;;;;;5073389;28;19924;-45
2021/11/09 01:46:38;;;;;;;;;;;17.90;71.00;;;;;;5073149;28;20380;-45
2021/11/09 01:49:05;;;;;;;;;;;17.90;71.00;;;;;;5078759;28;19931;-53
2021/11/09 01:51:32;;;;;;;;;;;17.90;71.70;;;;;;5093665;28;20337;-44
2021/11/09 01:54:00;;;;;;;;;;;17.90;71.00;;;;;;5079884;28;19928;-44
2021/11/09 01:56:28;;;;;;;;;;;17.90;71.00;;;;;;5073295;28;20391;-44
2021/11/09 01:58:56;;;;;;;;;;;17.90;71.00;;;;;;5073626;28;19970;-46
2021/11/09 02:01:23;;;;;;;;;;;17.90;71.00;;;;;;5073880;28;19928;-46
2021/11/09 02:03:52;;;;;;;;;;;17.90;71.00;;;;;;5078993;28;19928;-45
2021/11/09 02:06:20;;;;;;;;;;;17.90;70.90;;;;;;5097175;28;19928;-44
2021/11/09 02:08:47;;;;;;;;;;;17.90;70.90;;;;;;5087303;28;19924;-46
2021/11/09 02:11:15;;;;;;;;;;;17.90;70.90;;;;;;5076491;28;19924;-44
2021/11/09 02:13:45;;;;;;;;;;;17.90;71.00;;;;;;5076494;28;20003;-45
2021/11/09 02:16:14;;;;;;;;;;;17.90;71.00;;;;;;5076446;28;19928;-45
2021/11/09 02:18:41;;;;;;;;;;;17.90;71.00;;;;;;5076152;28;20474;-46
2021/11/09 02:21:10;;;;;;;;;;;17.90;71.00;;;;;;5096736;28;20268;-44
2021/11/09 02:23:42;;;;;;;;;;;17.90;71.00;;;;;;5089294;28;19925;-44
2021/11/09 02:26:10;;;;;;;;;;;17.90;71.00;;;;;;5076610;28;20324;-44
2021/11/09 02:28:38;;;;;;;;;;;17.90;71.00;;;;;;5076489;28;19924;-52
2021/11/09 02:31:05;;;;;;;;;;;17.90;71.00;;;;;;5076138;28;19924;-52
2021/11/09 02:33:33;;;;;;;;;;;17.90;71.00;;;;;;5076407;28;20390;-48
2021/11/09 02:36:00;;;;;;;;;;;17.90;71.00;;;;;;5076250;28;19935;-52
2021/11/09 02:38:27;;;;;;;;;;;17.90;71.00;;;;;;5091942;28;20019;-50
2021/11/09 02:40:55;;;;;;;;;;;17.90;71.00;;;;;;5075926;28;19931;-52
2021/11/09 02:43:23;;;;;;;;;;;17.90;71.00;;;;;;5075960;28;19931;-51
2021/11/09 02:48:31;;;;;;;;;;;17.90;71.00;;;;;;5076194;28;20273;-50
2021/11/09 02:51:04;;;;;;;;;;;17.90;71.00;;;;;;5092410;28;19926;-50
2021/11/09 02:56:07;;;;;;;;;;;17.90;71.00;;;;;;5075709;28;20375;-50
2021/11/09 02:58:53;;;;;;;;;;;17.90;71.00;;;;;;5075927;28;19986;-46
2021/11/09 03:01:46;;;;;;;;;;;17.90;71.00;;;;;;5075582;28;19928;-45
2021/11/09 03:04:47;;;;;;;;;;;17.90;71.00;;;;;;5076154;28;20272;-49
2021/11/09 03:07:06;;;;;;;;;;;17.90;71.00;;;;;;5095639;28;19973;-45
2021/11/09 03:12:05;;;;;;;;;;;17.90;71.00;;;;;;5075664;28;19990;-50
2021/11/09 03:14:33;;;;;;;;;;;17.90;71.10;;;;;;5075550;28;20337;-50
2021/11/09 03:17:05;;;;;;;;;;;17.90;71.00;;;;;;5075477;28;20346;-45
2021/11/09 03:19:42;;;;;;;;;;;17.90;71.00;;;;;;5077096;28;20046;-44
2021/11/09 03:44:24;;;;;;;;;;;17.90;71.00;;;;;;5054688;28;19924;-50
2021/11/09 03:46:57;;;;;;;;;;;17.90;71.00;;;;;;5054740;28;19964;-51
2021/11/09 03:49:26;;;;;;;;;;;17.90;71.10;;;;;;5054671;28;19958;-44
2021/11/09 03:51:54;;;;;;;;;;;17.90;71.10;;;;;;5093029;28;20272;-47
2021/11/09 03:54:27;;;;;;;;;;;17.90;71.10;;;;;;5089896;28;19980;-44
2021/11/09 03:57:07;;;;;;;;;;;17.90;71.10;;;;;;5074514;28;20371;-48
2021/11/09 04:02:09;;;;;;;;;;;17.90;71.10;;;;;;5074689;28;20272;-47
2021/11/09 04:07:14;;;;;;;;;;;17.90;71.10;;;;;;5093168;28;19924;-46
2021/11/09 04:12:33;;;;;;;;;;;17.90;71.90;;;;;;5074458;28;19924;-44
2021/11/09 04:17:55;;;;;;;;;;;17.90;71.10;;;;;;5074649;28;19925;-44
2021/11/09 04:20:34;;;;;;;;;;;17.90;71.10;;;;;;5076879;28;19997;-46
2021/11/09 04:26:02;;;;;;;;;;;17.90;71.10;;;;;;5080001;28;20279;-44
2021/11/09 05:09:39;;;;;;;;;;;17.90;71.20;;;;;;4972952;28;19926;-45
2021/11/09 05:12:06;;;;;;;;;;;17.90;71.10;;;;;;4953173;28;19927;-45
2021/11/09 05:14:34;;;;;;;;;;;17.90;71.10;;;;;;4953375;29;19931;-46
2021/11/09 05:17:01;;;;;;;;;;;17.90;71.10;;;;;;4953444;29;19978;-47
2021/11/09 05:19:28;;;;;;;;;;;17.90;71.10;;;;;;4953370;29;19997;-45
2021/11/09 05:21:56;;;;;;;;;;;17.90;71.10;;;;;;4963674;28;19933;-45
2021/11/09 05:24:22;;;;;;;;;;;17.90;71.20;;;;;;4972528;28;20354;-51
2021/11/09 05:26:50;;;;;;;;;;;17.90;71.20;;;;;;4940629;29;19966;-46
2021/11/09 05:29:17;;;;;;;;;;;17.90;71.20;;;;;;4953588;29;19974;-46
2021/11/09 05:31:44;;;;;;;;;;;17.90;71.20;;;;;;4953322;29;19927;-48
2021/11/09 05:34:12;;;;;;;;;;;17.90;71.20;;;;;;4980212;28;20257;-47
2021/11/09 05:36:42;;;;;;;;;;;17.90;71.20;;;;;;5069294;28;20375;-47
2021/11/09 05:39:19;;;;;;;;;;;17.90;71.20;;;;;;5097361;28;19924;-47
2021/11/09 05:41:50;;;;;;;;;;;17.90;71.20;;;;;;5082287;28;19999;-46
2021/11/09 05:44:18;;;;;;;;;;;17.90;71.20;;;;;;5077556;28;20337;-48
2021/11/09 05:46:45;;;;;;;;;;;17.90;71.20;;;;;;5077293;28;19985;-44
2021/11/09 05:49:12;;;;;;;;;;;17.90;71.20;;;;;;5077214;28;20338;-46
2021/11/09 05:51:40;;;;;;;;;;;17.90;71.20;;;;;;5082315;28;19925;-46
2021/11/09 05:54:09;;;;;;;;;;;17.90;71.20;;;;;;5097113;28;20329;-48
2021/11/09 05:56:36;;;;;;;;;;;17.90;71.20;;;;;;5085010;28;19930;-47
2021/11/09 05:59:03;;;;;;;;;;;17.90;71.20;;;;;;5076613;28;19924;-45
2021/11/09 06:01:30;;;;;;;;;;;17.90;71.20;;;;;;5076701;28;20407;-46
2021/11/09 06:03:57;;;;;;;;;;;17.90;71.20;;;;;;5076647;28;19974;-47
2021/11/09 06:06:24;;;;;;;;;;;17.90;71.20;;;;;;5078601;28;19928;-45
2021/11/09 06:08:51;;;;;;;;;;;17.90;71.20;;;;;;5096828;28;19935;-45
2021/11/09 06:11:18;;;;;;;;;;;17.90;71.20;;;;;;5088487;28;19928;-45
2021/11/09 06:13:46;;;;;;;;;;;17.90;71.20;;;;;;5076896;28;19925;-45
2021/11/09 06:16:13;;;;;;;;;;;17.90;71.20;;;;;;5076712;28;19928;-44
2021/11/09 06:18:40;;;;;;;;;;;17.90;71.20;;;;;;5076350;28;20109;-47
2021/11/09 06:21:07;;;;;;;;;;;17.90;71.20;;;;;;5076619;28;19978;-49
2021/11/09 06:23:34;;;;;;;;;;;17.90;71.30;;;;;;5094759;28;19963;-50
2021/11/09 06:26:01;;;;;;;;;;;17.90;71.20;;;;;;5092326;28;20384;-53
2021/11/09 06:28:29;;;;;;;;;;;17.90;71.20;;;;;;5076521;28;19928;-50
2021/11/09 06:30:56;;;;;;;;;;;17.90;71.20;;;;;;5076156;28;19925;-45
2021/11/09 06:33:23;;;;;;;;;;;17.90;71.20;;;;;;5076334;28;19974;-50
2021/11/09 06:35:51;;;;;;;;;;;17.90;71.20;;;;;;5076216;28;19928;-47
2021/11/09 06:38:19;;;;;;;;;;;17.90;71.20;;;;;;5090802;28;19969;-45
2021/11/09 06:40:48;;;;;;;;;;;17.90;71.20;;;;;;5095286;28;19975;-47
2021/11/09 06:43:15;;;;;;;;;;;17.90;71.20;;;;;;5073441;28;19931;-48
2021/11/09 06:45:43;;;;;;;;;;;17.90;71.10;;;;;;5074900;28;19929;-47
2021/11/09 06:48:10;;;;;;;;;;;17.90;71.10;;;;;;5075080;28;20007;-51
2021/11/09 06:50:38;;;;;;;;;;;17.90;71.10;;;;;;5075342;28;19929;-51
2021/11/09 06:53:05;;;;;;;;;;;18.00;71.30;;;;;;5086719;28;19932;-49
2021/11/09 06:55:35;;;;;;;;;;;18.00;72.00;;;;;;5077298;28;19969;-45
2021/11/09 06:58:03;;;;;;;;;;;18.00;71.20;;;;;;5095092;28;19924;-49
2021/11/09 07:00:30;;;;;;;;;;;18.00;71.20;;;;;;5095327;28;19924;-46
2021/11/09 07:02:57;;;;;;;;;;;18.00;71.20;;;;;;5095184;28;19924;-45
2021/11/09 07:05:25;;;;;;;;;;;18.00;71.20;;;;;;5077353;28;19924;-49
2021/11/09 07:07:52;;;;;;;;;;;18.00;71.10;;;;;;5094129;28;19924;-49
2021/11/09 07:10:19;;;;;;;;;;;18.00;71.10;;;;;;5095053;28;20425;-48
2021/11/09 07:12:47;;;;;;;;;;;18.00;71.10;;;;;;5095011;28;19924;-46
2021/11/09 07:15:17;;;;;;;;;;;18.10;71.20;;;;;;5094820;28;19924;-49
2021/11/09 07:17:45;;;;;;;;;;;18.10;71.10;;;;;;5094811;28;19978;-49
2021/11/09 07:20:13;;;;;;;;;;;18.10;71.10;;;;;;5094481;28;19924;-47
2021/11/09 07:22:40;;;;;;;;;;;18.10;71.10;;;;;;5093719;28;20292;-46
2021/11/09 07:25:10;;;;;;;;;;;18.10;71.10;;;;;;5094479;28;19924;-47
2021/11/09 07:27:39;;;;;;;;;;;18.10;71.00;;;;;;5084043;28;19978;-45
2021/11/09 07:30:07;;;;;;;;;;;18.10;70.90;;;;;;5074690;28;19924;-46
2021/11/09 07:32:35;;;;;;;;;;;18.20;71.10;;;;;;5074089;28;19929;-47
2021/11/09 07:35:02;;;;;;;;;;;18.20;71.00;;;;;;5073866;28;19929;-48
2021/11/09 07:37:30;;;;;;;;;;;18.20;71.00;;;;;;5077108;28;19963;-46
2021/11/09 07:39:57;;;;;;;;;;;18.20;70.90;;;;;;5094242;28;20335;-49
2021/11/09 07:42:24;;;;;;;;;;;18.20;70.80;;;;;;5094444;28;19923;-46
2021/11/09 07:44:53;;;;;;;;;;;18.20;70.80;;;;;;5094305;28;19928;-48
2021/11/09 07:47:22;;;;;;;;;;;18.20;70.70;;;;;;5094616;28;20372;-46
2021/11/09 07:49:48;;;;;;;;;;;18.20;70.70;;;;;;5094480;28;19931;-47
2021/11/09 07:52:16;;;;;;;;;;;18.20;70.70;;;;;;5093259;28;19931;-49
2021/11/09 07:54:46;;;;;;;;;;;18.20;70.70;;;;;;5093643;28;20371;-47
2021/11/09 07:57:15;;;;;;;;;;;18.30;70.80;;;;;;5094144;28;19975;-48
2021/11/09 07:59:56;;;;;;;;;;;18.30;70.80;;;;;;5093134;28;19954;-46
2021/11/09 08:04:56;;;;;;;;;;;18.30;70.70;;;;;;5093991;28;19978;-49
2021/11/09 08:07:30;;;;;;;;;;;18.30;70.70;;;;;;5093558;28;19924;-50
2021/11/09 08:09:58;;;;;;;;;;;18.30;70.60;;;;;;5052762;28;20384;-48
2021/11/09 08:12:25;;;;;;;;;;;18.40;70.80;;;;;;5053391;28;19955;-49
2021/11/09 08:14:52;;;;;;;;;;;18.40;70.70;;;;;;5053497;28;20380;-49
2021/11/09 08:17:19;;;;;;;;;;;18.40;70.70;;;;;;5053702;28;19924;-49
2021/11/09 08:19:47;;;;;;;;;;;18.40;70.70;;;;;;5053275;28;19925;-49
2021/11/09 08:22:15;;;;;;;;;;;18.40;70.70;;;;;;5053342;28;19937;-47
2021/11/09 08:24:42;;;;;;;;;;;18.40;70.60;;;;;;5088142;28;19978;-47
2021/11/09 08:27:11;;;;;;;;;;;18.40;70.60;;;;;;5093395;28;19998;-48
2021/11/09 08:29:38;;;;;;;;;;;18.50;70.70;;;;;;5093463;28;19931;-46
2021/11/09 08:32:10;;;;;;;;;;;18.50;70.70;;;;;;5093372;28;19927;-46
2021/11/09 08:34:37;;;;;;;;;;;18.50;70.70;;;;;;5076323;28;19924;-48
2021/11/09 08:37:04;;;;;;;;;;;18.50;70.70;;;;;;5093242;28;19978;-48
2021/11/09 08:39:37;;;;;;;;;;;18.50;70.70;;;;;;5092192;28;19963;-49
2021/11/09 08:44:44;;;;;;;;;;;18.50;70.70;;;;;;5093458;28;19975;-47
2021/11/09 08:47:14;;;;;;;;;;;18.50;70.60;;;;;;5093891;28;19928;-46
2021/11/09 08:49:42;;;;;;;;;;;18.50;70.60;;;;;;5093172;28;19971;-46
2021/11/09 08:52:14;;;;;;;;;;;18.50;70.60;;;;;;5093054;28;19925;-49
2021/11/09 08:55:12;;;;;;;;;;;18.50;70.60;;;;;;5091806;28;20395;-47
2021/11/09 08:58:11;;;;;;;;;;;18.50;70.60;;;;;;5093390;28;19924;-47
2021/11/09 09:06:06;;;;;;;;;;;18.50;70.60;;;;;;5093526;28;20306;-48
2021/11/09 09:08:33;;;;;;;;;;;18.50;70.70;;;;;;5091594;28;20349;-51
2021/11/09 09:11:07;;;;;;;;;;;18.50;70.70;;;;;;5095278;28;19959;-46
2021/11/09 09:13:34;;;;;;;;;;;18.50;70.70;;;;;;5096892;28;20405;-46
2021/11/09 09:16:02;;;;;;;;;;;18.50;70.70;;;;;;5097304;28;19928;-47
2021/11/09 09:18:29;;;;;;;;;;;18.50;70.70;;;;;;5097244;28;20396;-47
2021/11/09 09:21:00;;;;;;;;;;;18.60;70.80;;;;;;5097205;28;19924;-46
2021/11/09 09:23:33;;;;;;;;;;;18.60;70.80;;;;;;5095625;28;19967;-47
2021/11/09 09:53:21;;;;;;;;;;;18.60;71.00;;;;;;5096422;28;19924;-50
2021/11/09 09:55:51;;;;;;;;;;;18.60;71.00;;;;;;5094911;28;19970;-49
2021/11/09 09:58:19;;;;;;;;;;;18.60;71.00;;;;;;5096359;28;19924;-46
2021/11/09 10:00:46;;;;;;;;;;;18.60;71.00;;;;;;5096082;28;20474;-46
2021/11/09 10:03:13;;;;;;;;;;;18.60;71.00;;;;;;5096446;28;19950;-46
2021/11/09 10:05:41;;;;;;;;;;;18.60;71.00;;;;;;5096501;28;19978;-46
2021/11/09 10:08:19;;;;;;;;;;;18.60;71.00;;;;;;5096416;28;20006;-50
2021/11/09 10:10:46;;;;;;;;;;;18.60;71.00;;;;;;5094668;28;19924;-52
2021/11/09 10:13:20;;;;;;;;;;;18.60;71.00;;;;;;5095806;28;19924;-48
2021/11/09 10:15:48;;;;;;;;;;;18.60;71.00;;;;;;5078646;28;19931;-46
2021/11/09 10:18:18;;;;;;;;;;;18.70;71.10;;;;;;5096005;28;19930;-50
2021/11/09 10:20:47;;;;;;;;;;;18.70;71.10;;;;;;5077720;28;19924;-46
2021/11/09 10:23:15;;;;;;;;;;;18.70;71.10;;;;;;5094952;28;19949;-46
2021/11/09 10:25:43;;;;;;;;;;;18.70;71.10;;;;;;5076618;28;19924;-49
2021/11/09 10:28:18;;;;;;;;;;;18.70;71.10;;;;;;5095817;28;19970;-48
2021/11/09 10:30:47;;;;;;;;;;;18.70;71.10;;;;;;5095542;28;20395;-45
2021/11/09 10:33:15;;;;;;;;;;;18.70;71.10;;;;;;5095888;28;19928;-46
2021/11/09 10:35:43;;;;;;;;;;;18.70;71.10;;;;;;5095870;28;19977;-47
2021/11/09 10:38:10;;;;;;;;;;;18.70;71.10;;;;;;5095345;28;19928;-46
2021/11/09 10:40:42;;;;;;;;;;;18.70;71.10;;;;;;5094531;28;19933;-46
2021/11/09 10:43:10;;;;;;;;;;;18.70;71.00;;;;;;5095303;28;19975;-46
2021/11/09 10:45:38;;;;;;;;;;;18.70;71.10;;;;;;5077811;28;20003;-46
2021/11/09 10:48:07;;;;;;;;;;;18.70;71.10;;;;;;5096037;28;19977;-46
2021/11/09 10:50:36;;;;;;;;;;;18.70;71.10;;;;;;5096346;28;19928;-46
2021/11/09 10:53:12;;;;;;;;;;;18.70;71.10;;;;;;5096158;28;20310;-46
2021/11/09 10:56:07;;;;;;;;;;;18.70;71.10;;;;;;5094645;28;19931;-48
2021/11/09 11:03:50;;;;;;;;;;;18.70;71.00;;;;;;5096161;28;19924;-47
2021/11/09 11:06:33;;;;;;;;;;;18.70;71.00;;;;;;5096102;28;19924;-47
2021/11/09 11:09:06;;;;;;;;;;;18.70;71.00;;;;;;5095698;28;19931;-46
2021/11/09 11:11:55;;;;;;;;;;;18.70;71.00;;;;;;5095448;28;20387;-47
2021/11/09 11:14:24;;;;;;;;;;;18.70;71.00;;;;;;5095587;28;19928;-47
2021/11/09 11:16:55;;;;;;;;;;;18.70;71.00;;;;;;5095582;28;19982;-47
2021/11/09 11:19:23;;;;;;;;;;;18.80;71.10;;;;;;5095371;28;20375;-46
2021/11/09 11:21:50;;;;;;;;;;;18.70;71.10;;;;;;5077576;28;20444;-45
2021/11/09 11:24:18;;;;;;;;;;;18.80;71.10;;;;;;5095593;28;19924;-48
2021/11/09 11:26:46;;;;;;;;;;;18.80;71.10;;;;;;5094142;28;20061;-45
2021/11/09 11:29:21;;;;;;;;;;;18.80;71.10;;;;;;5077587;28;19931;-46
2021/11/09 11:31:49;;;;;;;;;;;18.80;71.10;;;;;;5095226;28;19924;-45
2021/11/09 11:34:17;;;;;;;;;;;18.80;71.10;;;;;;5095013;28;19931;-47
2021/11/09 11:36:44;;;;;;;;;;;18.80;71.10;;;;;;5095127;28;20045;-46
2021/11/09 11:39:11;;;;;;;;;;;18.80;71.10;;;;;;5095343;28;19924;-46
2021/11/09 11:41:39;;;;;;;;;;;18.80;71.10;;;;;;5093916;28;19923;-49
2021/11/09 11:44:07;;;;;;;;;;;18.80;71.10;;;;;;5094865;28;19971;-49
2021/11/09 11:46:35;;;;;;;;;;;18.80;71.10;;;;;;5094935;28;20306;-48
2021/11/09 11:49:02;;;;;;;;;;;18.80;71.10;;;;;;5094923;28;19931;-47
2021/11/09 11:51:30;;;;;;;;;;;18.80;71.00;;;;;;5095109;28;20002;-46
2021/11/09 11:53:57;;;;;;;;;;;18.80;71.10;;;;;;5094622;28;19927;-47
2021/11/09 11:56:41;;;;;;;;;;;18.80;71.00;;;;;;5093498;28;20399;-50
2021/11/09 11:59:14;;;;;;;;;;;18.80;71.00;;;;;;5094643;28;19946;-47
2021/11/09 12:01:45;;;;;;;;;;;18.80;71.00;;;;;;5094727;28;20023;-48
2021/11/09 12:04:32;;;;;;;;;;;18.80;71.00;;;;;;5094625;28;19963;-47
2021/11/09 12:07:00;;;;;;;;;;;18.80;71.00;;;;;;5094554;28;20300;-48
2021/11/09 12:09:28;;;;;;;;;;;18.80;71.00;;;;;;5094588;28;20011;-47
2021/11/09 12:11:55;;;;;;;;;;;18.80;71.00;;;;;;5093176;28;19971;-47
2021/11/09 12:14:23;;;;;;;;;;;18.90;71.10;;;;;;5095355;28;19928;-49
2021/11/09 12:16:54;;;;;;;;;;;18.90;71.20;;;;;;5094744;28;19924;-50
2021/11/09 12:19:38;;;;;;;;;;;18.90;71.10;;;;;;5094304;28;19924;-48
2021/11/09 12:22:09;;;;;;;;;;;18.90;71.10;;;;;;5094621;28;20337;-52
2021/11/09 12:24:47;;;;;;;;;;;18.90;71.10;;;;;;5094455;28;20006;-50
2021/11/09 12:27:14;;;;;;;;;;;18.90;71.10;;;;;;5093002;28;20414;-49
2021/11/09 12:29:49;;;;;;;;;;;18.80;71.00;;;;;;5094514;28;19955;-50
2021/11/09 12:32:35;;;;;;;;;;;18.90;71.10;;;;;;5076565;28;20010;-51
2021/11/09 12:35:09;;;;;;;;;;;18.80;71.00;;;;;;5094064;28;20384;-49
2021/11/09 12:37:38;;;;;;;;;;;18.90;71.10;;;;;;5094102;28;20027;-51
2021/11/09 12:40:24;;;;;;;;;;;18.90;71.10;;;;;;5094004;28;19969;-47
2021/11/09 12:43:10;;;;;;;;;;;18.90;71.10;;;;;;5094400;28;19933;-48
2021/11/09 12:45:38;;;;;;;;;;;18.90;71.10;;;;;;5093582;28;19947;-47
2021/11/09 12:48:07;;;;;;;;;;;18.90;71.10;;;;;;5093935;28;20400;-49
2021/11/09 12:50:35;;;;;;;;;;;18.90;71.10;;;;;;5094247;28;19931;-49
2021/11/09 12:53:06;;;;;;;;;;;18.80;71.00;;;;;;5075922;28;20405;-51
2021/11/09 12:55:34;;;;;;;;;;;18.90;71.10;;;;;;5092640;28;20291;-50
2021/11/09 12:58:17;;;;;;;;;;;18.90;71.10;;;;;;5093146;28;20135;-47
2021/11/09 13:00:49;;;;;;;;;;;18.90;71.10;;;;;;5093728;28;19931;-51
2021/11/09 13:03:26;;;;;;;;;;;18.90;71.10;;;;;;5093883;28;19931;-47
2021/11/09 13:06:03;;;;;;;;;;;18.90;71.20;;;;;;5094469;28;19931;-49
2021/11/09 13:08:42;;;;;;;;;;;18.90;71.10;;;;;;5094168;28;19932;-48
2021/11/09 13:11:30;;;;;;;;;;;18.90;71.10;;;;;;5074671;28;19946;-50
2021/11/09 13:14:03;;;;;;;;;;;18.90;71.20;;;;;;5093950;28;19924;-48
2021/11/09 13:16:51;;;;;;;;;;;18.90;71.20;;;;;;5093562;28;19931;-50
2021/11/09 13:19:24;;;;;;;;;;;18.90;71.10;;;;;;5093956;28;20267;-47
2021/11/09 13:22:08;;;;;;;;;;;18.90;71.10;;;;;;5093647;28;19924;-48
2021/11/09 13:24:38;;;;;;;;;;;18.90;71.10;;;;;;5093430;28;19924;-49
2021/11/09 13:27:09;;;;;;;;;;;18.90;71.10;;;;;;5092311;28;19970;-49
2021/11/09 13:29:40;;;;;;;;;;;18.90;71.20;;;;;;5093565;28;20379;-50
2021/11/09 13:32:08;;;;;;;;;;;18.90;71.20;;;;;;5093842;28;19924;-47
2021/11/09 13:34:35;;;;;;;;;;;18.90;71.20;;;;;;5093805;28;19924;-47
2021/11/09 13:37:03;;;;;;;;;;;18.90;71.20;;;;;;5076080;28;19928;-48
2021/11/09 13:39:30;;;;;;;;;;;18.90;71.20;;;;;;5093412;28;20427;-48
2021/11/09 13:41:58;;;;;;;;;;;18.90;71.20;;;;;;5092385;28;19938;-48
2021/11/09 13:44:30;;;;;;;;;;;18.90;71.20;;;;;;5093695;28;20288;-53
2021/11/09 13:46:58;;;;;;;;;;;18.90;71.20;;;;;;5093724;28;19925;-49
2021/11/09 13:49:25;;;;;;;;;;;18.90;71.20;;;;;;5093646;28;20383;-50
2021/11/09 13:51:59;;;;;;;;;;;18.90;71.20;;;;;;5093250;28;20415;-48
2021/11/09 13:54:32;;;;;;;;;;;18.90;71.20;;;;;;5093140;28;19946;-48
2021/11/09 13:57:01;;;;;;;;;;;18.90;71.30;;;;;;5092401;28;19924;-48
2021/11/09 13:59:35;;;;;;;;;;;18.90;71.30;;;;;;5097357;28;19924;-50
2021/11/09 14:03:01;;;;;;;;;;;18.90;71.30;;;;;;5079724;28;19924;-47
2021/11/09 14:08:00;;;;;;;;;;;18.90;71.30;;;;;;5096944;28;20371;-49
2021/11/09 14:18:23;;;;;;;;;;;18.90;71.30;;;;;;5092133;28;19924;-48
2021/11/09 14:20:50;;;;;;;;;;;18.90;71.40;;;;;;5076307;28;19925;-48
2021/11/09 14:23:26;;;;;;;;;;;18.90;71.40;;;;;;5058362;28;19924;-46
2021/11/09 14:25:54;;;;;;;;;;;18.90;71.40;;;;;;5076365;28;19971;-50
2021/11/09 14:28:31;;;;;;;;;;;18.90;71.50;;;;;;5090892;28;19971;-46
2021/11/09 14:31:17;;;;;;;;;;;18.90;71.50;;;;;;5096486;28;19938;-47
2021/11/09 14:33:47;;;;;;;;;;;18.90;71.50;;;;;;5096429;28;19970;-47
2021/11/09 14:36:21;;;;;;;;;;;18.90;71.50;;;;;;5096728;28;19924;-49
2021/11/09 14:38:52;;;;;;;;;;;18.90;71.60;;;;;;5096647;28;20015;-49
2021/11/09 14:41:25;;;;;;;;;;;18.90;71.60;;;;;;5096267;28;19967;-48
2021/11/09 14:43:57;;;;;;;;;;;18.90;71.60;;;;;;5076801;28;19931;-49
2021/11/09 14:46:26;;;;;;;;;;;18.80;71.50;;;;;;5096175;28;19969;-46
2021/11/09 14:48:59;;;;;;;;;;;18.90;71.70;;;;;;5096394;28;19928;-46
2021/11/09 14:51:31;;;;;;;;;;;18.90;71.70;;;;;;5096434;28;19924;-47
2021/11/09 14:54:13;;;;;;;;;;;18.90;71.80;;;;;;5095782;28;20003;-48
2021/11/09 14:56:40;;;;;;;;;;;18.80;71.70;;;;;;5096082;28;20366;-47
2021/11/09 14:59:08;;;;;;;;;;;18.90;71.80;;;;;;5094767;28;19928;-47
2021/11/09 15:01:41;;;;;;;;;;;18.80;71.80;;;;;;5095809;28;19924;-47
2021/11/09 15:04:20;;;;;;;;;;;18.80;71.80;;;;;;5096122;28;20323;-53
2021/11/09 15:09:46;;;;;;;;;;;18.80;71.90;;;;;;5095853;28;19974;-46
2021/11/09 15:12:42;;;;;;;;;;;18.80;71.90;;;;;;5094331;28;19928;-50
2021/11/09 15:26:45;;;;;;;;;;;18.80;72.10;;;;;;5095481;28;19924;-46
2021/11/09 15:29:17;;;;;;;;;;;18.80;72.10;;;;;;5094464;28;19946;-48
2021/11/09 15:31:57;;;;;;;;;;;18.70;72.10;;;;;;5077484;28;19971;-46
2021/11/09 15:34:47;;;;;;;;;;;18.70;72.10;;;;;;5095307;28;20406;-47
2021/11/09 15:37:25;;;;;;;;;;;18.70;72.20;;;;;;5095187;28;19924;-50
2021/11/09 15:39:58;;;;;;;;;;;18.70;72.20;;;;;;5095173;28;19971;-46
2021/11/09 15:42:27;;;;;;;;;;;18.70;72.20;;;;;;5094124;28;20280;-47
2021/11/09 15:44:55;;;;;;;;;;;18.70;72.30;;;;;;5095012;28;19930;-48
2021/11/09 15:47:22;;;;;;;;;;;18.70;72.30;;;;;;5095339;28;19963;-47
2021/11/09 15:49:51;;;;;;;;;;;18.70;72.40;;;;;;5094958;28;19924;-49
2021/11/09 15:52:18;;;;;;;;;;;18.70;72.40;;;;;;5094934;28;20433;-47
2021/11/09 15:54:48;;;;;;;;;;;18.70;72.40;;;;;;5094496;28;19924;-47
2021/11/09 15:57:15;;;;;;;;;;;18.60;72.40;;;;;;5094740;28;19971;-48
2021/11/09 15:59:42;;;;;;;;;;;18.70;72.50;;;;;;5059370;28;20014;-47
2021/11/09 16:02:09;;;;;;;;;;;18.60;72.40;;;;;;5094641;28;19924;-51
2021/11/09 16:04:42;;;;;;;;;;;18.70;72.50;;;;;;5094981;28;20053;-50
2021/11/09 16:07:09;;;;;;;;;;;18.60;72.50;;;;;;5094703;28;20032;-47
2021/11/09 16:09:40;;;;;;;;;;;18.70;72.60;;;;;;5094937;28;19967;-48
2021/11/09 16:12:08;;;;;;;;;;;18.70;72.70;;;;;;5094469;28;19982;-50
2021/11/09 16:14:35;;;;;;;;;;;18.70;72.60;;;;;;5093538;28;20432;-47
2021/11/09 16:17:02;;;;;;;;;;;18.70;72.70;;;;;;5094802;28;20009;-46
2021/11/09 16:19:29;;;;;;;;;;;18.60;72.60;;;;;;5094343;28;19924;-46
2021/11/09 16:21:56;;;;;;;;;;;18.60;72.60;;;;;;5094138;28;19924;-49
2021/11/09 16:24:23;;;;;;;;;;;18.60;72.70;;;;;;5094424;28;19924;-48
2021/11/09 16:26:49;;;;;;;;;;;18.60;72.70;;;;;;5095189;28;19978;-50
2021/11/09 16:29:25;;;;;;;;;;;18.60;72.70;;;;;;5093316;28;19970;-49
2021/11/09 16:31:53;;;;;;;;;;;18.60;72.70;;;;;;5094201;28;19924;-47
2021/11/09 16:34:26;;;;;;;;;;;18.60;72.80;;;;;;5094182;28;19935;-47
2021/11/09 16:36:55;;;;;;;;;;;18.60;72.80;;;;;;5094507;28;20009;-52
2021/11/09 16:39:35;;;;;;;;;;;18.60;72.80;;;;;;5094383;28;20369;-49
2021/11/09 16:42:03;;;;;;;;;;;18.60;72.80;;;;;;5094293;28;20372;-47
2021/11/09 16:44:30;;;;;;;;;;;18.60;72.90;;;;;;5093124;28;19924;-47
2021/11/09 16:47:00;;;;;;;;;;;18.60;72.90;;;;;;5094366;28;19977;-51
2021/11/09 16:52:24;;;;;;;;;;;18.60;72.90;;;;;;5094335;28;20340;-49
2021/11/09 16:55:11;;;;;;;;;;;18.60;72.90;;;;;;5093693;28;20371;-48
2021/11/09 18:22:33;;;;;;;;;;;18.30;71.40;;;;;;5005086;28;19925;-48
2021/11/09 18:25:00;;;;;;;;;;;18.30;71.50;;;;;;4994603;28;19926;-49
2021/11/09 18:27:28;;;;;;;;;;;18.30;71.50;;;;;;4995016;28;19949;-48
2021/11/09 18:29:55;;;;;;;;;;;18.30;71.40;;;;;;5000508;28;20057;-47
2021/11/09 18:32:22;;;;;;;;;;;18.30;72.20;;;;;;5014518;28;20011;-49
2021/11/09 18:34:50;;;;;;;;;;;18.30;71.40;;;;;;5014438;28;20405;-48